Time;durP1;ratioP1;P1;durP2;ratioP2;P2;SDS_P1;SDS_P2;PMS_P1;PMS_P2;Temp;Humidity;BMP_temperature;BMP_pressure;BME280_temperature;BME280_humidity;BME280_pressure;Samples;Min_cycle;Max_cycle;Signal;HPM_P1;HPM_P2
2022/01/29 00:01:56;;;;;;;12.23;8.45;;;;;;;;;;5102196;28;20195;-68
2022/01/29 00:04:23;;;;;;;11.25;7.97;;;;;;;;;;5101782;28;20184;-68
2022/01/29 00:06:49;;;;;;;14.75;8.65;;;;;;;;;;5102213;28;20223;-68
2022/01/29 00:09:17;;;;;;;14.43;9.13;;;;;;;;;;5102226;28;20199;-68
2022/01/29 00:11:44;;;;;;;15.00;10.10;;;;;;;;;;5102289;28;20203;-67
2022/01/29 00:14:10;;;;;;;12.90;8.73;;;;;;;;;;5102259;28;20224;-67
2022/01/29 00:16:37;;;;;;;13.18;9.18;;;;;;;;;;5101888;28;20200;-67
2022/01/29 00:19:04;;;;;;;11.77;9.30;;;;;;;;;;5102083;28;20207;-67
2022/01/29 00:21:30;;;;;;;14.15;8.57;;;;;;;;;;5102257;28;20518;-68
2022/01/29 00:23:57;;;;;;;13.63;8.73;;;;;;;;;;5102218;28;20191;-67
2022/01/29 00:26:26;;;;;;;15.35;8.70;;;;;;;;;;5101972;28;20196;-68
2022/01/29 00:28:54;;;;;;;13.30;9.13;;;;;;;;;;5101853;28;20219;-68
2022/01/29 00:31:21;;;;;;;13.18;8.65;;;;;;;;;;5101457;28;20503;-68
2022/01/29 00:33:47;;;;;;;12.48;8.90;;;;;;;;;;5101622;28;20241;-68
2022/01/29 00:36:14;;;;;;;11.30;7.97;;;;;;;;;;5104959;28;20195;-68
2022/01/29 00:38:40;;;;;;;11.10;8.30;;;;;;;;;;5105832;28;20199;-68
2022/01/29 00:41:06;;;;;;;12.00;8.45;;;;;;;;;;5106282;28;20385;-68
2022/01/29 00:43:35;;;;;;;12.30;8.45;;;;;;;;;;5105966;28;20191;-67
2022/01/29 00:46:01;;;;;;;12.27;8.52;;;;;;;;;;5105502;28;20588;-68
2022/01/29 00:48:28;;;;;;;12.82;8.70;;;;;;;;;;5105751;28;20196;-68
2022/01/29 00:50:54;;;;;;;14.07;9.10;;;;;;;;;;5105737;28;20196;-68
2022/01/29 00:53:21;;;;;;;11.90;8.93;;;;;;;;;;5105371;28;20222;-67
2022/01/29 00:55:48;;;;;;;12.57;8.60;;;;;;;;;;5105598;28;20491;-67
2022/01/29 00:58:14;;;;;;;14.07;8.88;;;;;;;;;;5105241;28;20229;-68
2022/01/29 01:00:44;;;;;;;12.95;8.73;;;;;;;;;;5105357;28;20498;-68
2022/01/29 01:03:10;;;;;;;13.77;9.18;;;;;;;;;;5105163;28;20192;-67
2022/01/29 01:05:36;;;;;;;10.45;8.77;;;;;;;;;;5105633;28;20220;-68
2022/01/29 01:08:03;;;;;;;16.40;9.15;;;;;;;;;;5104913;28;20192;-67
2022/01/29 01:10:29;;;;;;;14.07;8.90;;;;;;;;;;5105366;28;20339;-68
2022/01/29 01:12:56;;;;;;;11.18;8.60;;;;;;;;;;5104779;28;20211;-68
2022/01/29 01:15:22;;;;;;;12.45;8.10;;;;;;;;;;5105497;28;20196;-68
2022/01/29 01:17:50;;;;;;;10.27;7.22;;;;;;;;;;5104880;28;20196;-67
2022/01/29 01:20:16;;;;;;;12.43;7.93;;;;;;;;;;5105121;28;20196;-68
2022/01/29 01:22:43;;;;;;;13.13;7.85;;;;;;;;;;5104786;28;20200;-68
2022/01/29 01:25:10;;;;;;;8.02;6.70;;;;;;;;;;5105065;28;20196;-68
2022/01/29 01:27:36;;;;;;;9.30;6.95;;;;;;;;;;5104687;28;20256;-67
2022/01/29 01:30:03;;;;;;;10.13;7.57;;;;;;;;;;5104507;28;20211;-67
2022/01/29 01:32:29;;;;;;;7.25;6.47;;;;;;;;;;5104845;28;20208;-68
2022/01/29 01:35:07;;;;;;;11.18;7.28;;;;;;;;;;5104664;28;20220;-68
2022/01/29 01:37:38;;;;;;;9.95;6.80;;;;;;;;;;5104212;28;20203;-68
2022/01/29 01:40:07;;;;;;;11.00;7.47;;;;;;;;;;5104547;28;20188;-68
2022/01/29 01:42:33;;;;;;;13.60;7.97;;;;;;;;;;5104333;28;20203;-68
2022/01/29 01:44:59;;;;;;;13.25;7.78;;;;;;;;;;5104574;28;20237;-68
2022/01/29 01:47:26;;;;;;;12.65;7.43;;;;;;;;;;5103503;28;20203;-68
2022/01/29 01:49:52;;;;;;;11.77;7.85;;;;;;;;;;5104515;28;20196;-68
2022/01/29 01:52:20;;;;;;;8.70;7.35;;;;;;;;;;5104076;28;20188;-68
2022/01/29 01:54:46;;;;;;;11.80;8.15;;;;;;;;;;5104499;28;20211;-68
2022/01/29 01:57:13;;;;;;;11.00;7.78;;;;;;;;;;5104282;28;20421;-68
2022/01/29 01:59:40;;;;;;;11.15;8.63;;;;;;;;;;5104425;28;20511;-68
2022/01/29 02:02:06;;;;;;;12.70;8.43;;;;;;;;;;5104085;28;20364;-68
2022/01/29 02:04:33;;;;;;;11.82;8.23;;;;;;;;;;5104013;28;20184;-68
2022/01/29 02:07:01;;;;;;;10.70;8.48;;;;;;;;;;5103755;28;20223;-68
2022/01/29 02:09:30;;;;;;;12.10;8.27;;;;;;;;;;5104049;28;20199;-68
2022/01/29 02:11:58;;;;;;;11.00;8.48;;;;;;;;;;5103842;28;20215;-68
2022/01/29 02:14:28;;;;;;;11.18;9.00;;;;;;;;;;5104110;28;20611;-68
2022/01/29 02:16:55;;;;;;;11.32;8.15;;;;;;;;;;5103899;28;20515;-68
2022/01/29 02:19:21;;;;;;;11.27;8.55;;;;;;;;;;5103914;28;20266;-68
2022/01/29 02:21:49;;;;;;;10.68;8.15;;;;;;;;;;5103470;28;20204;-68
2022/01/29 02:24:16;;;;;;;14.75;8.43;;;;;;;;;;5103749;28;20200;-68
2022/01/29 02:26:42;;;;;;;11.52;7.93;;;;;;;;;;5103552;28;20203;-68
2022/01/29 02:29:08;;;;;;;10.40;7.93;;;;;;;;;;5103753;28;20211;-68
2022/01/29 02:31:35;;;;;;;10.23;7.78;;;;;;;;;;5103551;28;20203;-68
2022/01/29 02:34:03;;;;;;;12.20;8.50;;;;;;;;;;5103520;28;20218;-68
2022/01/29 02:36:30;;;;;;;8.55;7.70;;;;;;;;;;5103770;28;20242;-68
2022/01/29 02:38:59;;;;;;;13.77;7.53;;;;;;;;;;5103260;28;20427;-68
2022/01/29 02:41:25;;;;;;;9.73;7.97;;;;;;;;;;5103488;28;20600;-68
2022/01/29 02:43:52;;;;;;;9.50;7.85;;;;;;;;;;5103600;28;20245;-68
2022/01/29 02:46:28;;;;;;;10.85;7.57;;;;;;;;;;5103200;28;20533;-68
2022/01/29 02:48:56;;;;;;;11.68;7.60;;;;;;;;;;5102984;28;20227;-68
2022/01/29 02:51:22;;;;;;;9.60;7.55;;;;;;;;;;5103231;28;20203;-68
2022/01/29 02:53:49;;;;;;;8.93;6.88;;;;;;;;;;5102944;28;20211;-68
2022/01/29 02:56:17;;;;;;;10.63;7.63;;;;;;;;;;5102992;28;20208;-68
2022/01/29 02:58:44;;;;;;;10.93;6.97;;;;;;;;;;5103203;28;20191;-68
2022/01/29 03:01:10;;;;;;;10.45;7.18;;;;;;;;;;5102809;28;20196;-68
2022/01/29 03:03:37;;;;;;;9.52;7.38;;;;;;;;;;5103248;28;20192;-68
2022/01/29 03:06:07;;;;;;;7.93;6.60;;;;;;;;;;5103261;28;20539;-68
2022/01/29 03:08:34;;;;;;;8.43;6.75;;;;;;;;;;5102974;28;20425;-68
2022/01/29 03:11:00;;;;;;;7.80;6.50;;;;;;;;;;5102768;28;20195;-68
2022/01/29 03:13:28;;;;;;;9.65;6.75;;;;;;;;;;5103371;28;20211;-68
2022/01/29 03:15:54;;;;;;;8.25;6.63;;;;;;;;;;5102991;28;20195;-68
2022/01/29 03:18:21;;;;;;;8.00;6.82;;;;;;;;;;5102307;28;20196;-68
2022/01/29 03:20:47;;;;;;;8.32;6.07;;;;;;;;;;5102761;28;20204;-68
2022/01/29 03:23:14;;;;;;;8.00;6.03;;;;;;;;;;5102587;28;20502;-68
2022/01/29 03:25:40;;;;;;;8.23;6.22;;;;;;;;;;5102500;28;20195;-68
2022/01/29 03:28:06;;;;;;;8.45;6.03;;;;;;;;;;5103054;28;20196;-68
2022/01/29 03:30:35;;;;;;;6.55;4.97;;;;;;;;;;5102348;28;20249;-68
2022/01/29 03:33:02;;;;;;;5.82;5.10;;;;;;;;;;5102585;28;20195;-68
2022/01/29 03:35:28;;;;;;;5.93;4.63;;;;;;;;;;5103009;28;20557;-68
2022/01/29 03:37:55;;;;;;;6.38;5.25;;;;;;;;;;5102317;28;20229;-68
2022/01/29 03:40:21;;;;;;;7.60;5.13;;;;;;;;;;5102507;28;20202;-68
2022/01/29 03:42:59;;;;;;;5.25;4.65;;;;;;;;;;5102684;28;20199;-68
2022/01/29 03:45:25;;;;;;;5.25;4.68;;;;;;;;;;5102432;28;20191;-68
2022/01/29 03:47:53;;;;;;;6.97;4.85;;;;;;;;;;5102121;28;20191;-69
2022/01/29 03:50:20;;;;;;;7.82;4.70;;;;;;;;;;5102050;28;20196;-68
2022/01/29 03:52:46;;;;;;;5.28;4.78;;;;;;;;;;5102552;28;20203;-68
2022/01/29 03:55:12;;;;;;;6.50;5.20;;;;;;;;;;5102546;28;20230;-68
2022/01/29 03:57:39;;;;;;;6.25;5.07;;;;;;;;;;5102183;28;20203;-68
2022/01/29 04:00:08;;;;;;;5.07;4.53;;;;;;;;;;5102309;28;20511;-68
2022/01/29 04:02:34;;;;;;;5.68;4.80;;;;;;;;;;5102273;28;20242;-68
2022/01/29 04:05:02;;;;;;;5.53;4.68;;;;;;;;;;5101831;28;20188;-68
2022/01/29 04:07:29;;;;;;;5.22;4.60;;;;;;;;;;5102088;28;20204;-68
2022/01/29 04:09:55;;;;;;;4.93;4.53;;;;;;;;;;5102795;28;20192;-68
2022/01/29 04:12:24;;;;;;;4.90;4.15;;;;;;;;;;5106500;28;20195;-68
2022/01/29 04:14:53;;;;;;;4.50;4.07;;;;;;;;;;5106052;28;20275;-68
2022/01/29 04:17:19;;;;;;;4.53;4.13;;;;;;;;;;5105848;28;20657;-68
2022/01/29 04:19:46;;;;;;;4.88;4.40;;;;;;;;;;5106272;28;20225;-68
2022/01/29 04:22:14;;;;;;;6.53;4.97;;;;;;;;;;5106277;28;20219;-68
2022/01/29 04:24:40;;;;;;;5.03;4.53;;;;;;;;;;5106255;28;20503;-68
2022/01/29 04:27:15;;;;;;;5.72;4.72;;;;;;;;;;5105985;28;20211;-68
2022/01/29 04:29:53;;;;;;;5.85;4.05;;;;;;;;;;5105620;28;20218;-68
2022/01/29 04:32:25;;;;;;;5.32;4.43;;;;;;;;;;5105532;28;20262;-68
2022/01/29 04:34:51;;;;;;;4.00;3.70;;;;;;;;;;5106021;28;20227;-68
2022/01/29 04:37:19;;;;;;;6.60;4.18;;;;;;;;;;5105796;28;20196;-68
2022/01/29 04:39:45;;;;;;;4.05;3.70;;;;;;;;;;5105826;28;20199;-68
2022/01/29 04:42:12;;;;;;;4.60;4.03;;;;;;;;;;5105617;28;20214;-68
2022/01/29 04:44:38;;;;;;;3.63;3.33;;;;;;;;;;5105689;28;20229;-68
2022/01/29 04:47:05;;;;;;;4.45;3.80;;;;;;;;;;5105288;28;20195;-68
2022/01/29 04:49:31;;;;;;;5.22;3.80;;;;;;;;;;5105718;28;20510;-68
2022/01/29 04:51:57;;;;;;;5.20;3.53;;;;;;;;;;5105638;28;20203;-68
2022/01/29 04:54:25;;;;;;;6.43;3.83;;;;;;;;;;5105630;28;20403;-68
2022/01/29 04:56:52;;;;;;;3.90;3.50;;;;;;;;;;5105217;28;20560;-68
2022/01/29 04:59:18;;;;;;;4.60;4.15;;;;;;;;;;5105389;28;20204;-68
2022/01/29 05:01:44;;;;;;;4.47;3.63;;;;;;;;;;5105443;28;20412;-68
2022/01/29 05:04:11;;;;;;;5.93;3.60;;;;;;;;;;5105304;28;20196;-68
2022/01/29 05:06:37;;;;;;;3.33;3.13;;;;;;;;;;5105111;28;20216;-68
2022/01/29 05:09:07;;;;;;;3.20;2.90;;;;;;;;;;5105327;28;20195;-68
2022/01/29 05:11:35;;;;;;;6.15;3.17;;;;;;;;;;5105135;28;20203;-68
2022/01/29 05:14:03;;;;;;;3.50;3.20;;;;;;;;;;5105152;28;20241;-68
2022/01/29 05:16:44;;;;;;;4.85;3.33;;;;;;;;;;5104956;28;20200;-68
2022/01/29 05:27:24;;;;;;;4.40;3.22;;;;;;;;;;5084589;28;20238;-68
2022/01/29 05:29:50;;;;;;;3.78;3.45;;;;;;;;;;5084702;28;20200;-68
2022/01/29 05:32:16;;;;;;;3.88;3.50;;;;;;;;;;5087535;28;20261;-67
2022/01/29 05:34:43;;;;;;;4.55;3.88;;;;;;;;;;5104687;28;20227;-68
2022/01/29 05:37:09;;;;;;;5.32;3.63;;;;;;;;;;5104880;28;20203;-68
2022/01/29 05:39:37;;;;;;;5.15;4.65;;;;;;;;;;5104812;28;20527;-68
2022/01/29 05:42:03;;;;;;;6.20;4.03;;;;;;;;;;5104954;28;20263;-68
2022/01/29 05:44:31;;;;;;;7.10;4.10;;;;;;;;;;5104657;28;20218;-68
2022/01/29 05:46:57;;;;;;;6.15;5.05;;;;;;;;;;5104244;28;20196;-67
2022/01/29 05:49:24;;;;;;;5.25;4.25;;;;;;;;;;5104596;28;20371;-67
2022/01/29 05:51:50;;;;;;;5.85;4.82;;;;;;;;;;5104293;28;20525;-68
2022/01/29 05:54:17;;;;;;;8.15;4.63;;;;;;;;;;5104544;28;20212;-68
2022/01/29 05:56:43;;;;;;;9.70;4.65;;;;;;;;;;5104225;28;20242;-68
2022/01/29 05:59:10;;;;;;;4.85;4.32;;;;;;;;;;5104069;28;20384;-67
2022/01/29 06:01:38;;;;;;;8.02;5.57;;;;;;;;;;5104027;28;20196;-67
2022/01/29 06:04:06;;;;;;;8.32;6.32;;;;;;;;;;5104237;28;20208;-68
2022/01/29 06:06:32;;;;;;;7.53;6.32;;;;;;;;;;5104047;28;20221;-68
2022/01/29 06:09:01;;;;;;;7.47;5.70;;;;;;;;;;5104301;28;20195;-68
2022/01/29 06:11:27;;;;;;;12.68;8.95;;;;;;;;;;5103999;28;20203;-68
2022/01/29 06:13:54;;;;;;;9.77;7.18;;;;;;;;;;5104090;28;20203;-67
2022/01/29 06:16:20;;;;;;;10.90;8.75;;;;;;;;;;5104231;28;20534;-67
2022/01/29 06:18:48;;;;;;;11.25;8.70;;;;;;;;;;5104135;28;20211;-67
2022/01/29 06:21:15;;;;;;;11.35;10.02;;;;;;;;;;5103890;28;20241;-67
2022/01/29 06:23:43;;;;;;;11.27;8.82;;;;;;;;;;5104072;28;20316;-67
2022/01/29 06:26:10;;;;;;;13.02;9.15;;;;;;;;;;5103817;28;20206;-67
2022/01/29 06:28:37;;;;;;;10.82;8.13;;;;;;;;;;5103509;28;20203;-68
2022/01/29 06:31:04;;;;;;;9.43;8.02;;;;;;;;;;5103345;28;20506;-67
2022/01/29 06:33:30;;;;;;;12.85;9.18;;;;;;;;;;5103529;28;20196;-67
2022/01/29 06:35:58;;;;;;;12.30;8.75;;;;;;;;;;5103708;28;20219;-67
2022/01/29 06:38:24;;;;;;;11.20;8.50;;;;;;;;;;5103081;28;20244;-68
2022/01/29 06:40:51;;;;;;;11.50;8.77;;;;;;;;;;5103306;28;20192;-68
2022/01/29 06:43:17;;;;;;;12.38;9.32;;;;;;;;;;5103337;28;20204;-68
2022/01/29 06:45:45;;;;;;;15.98;10.38;;;;;;;;;;5103615;28;20192;-68
2022/01/29 06:48:12;;;;;;;14.43;10.52;;;;;;;;;;5103504;28;20566;-68
2022/01/29 06:50:38;;;;;;;16.00;11.10;;;;;;;;;;5103168;28;20192;-68
2022/01/29 06:53:07;;;;;;;14.27;11.73;;;;;;;;;;5103365;28;20499;-68
2022/01/29 06:55:34;;;;;;;15.27;11.50;;;;;;;;;;5102982;28;20228;-68
2022/01/29 06:58:00;;;;;;;19.13;11.68;;;;;;;;;;5102865;28;20192;-68
2022/01/29 07:00:27;;;;;;;17.52;12.82;;;;;;;;;;5103094;28;20204;-68
2022/01/29 07:02:53;;;;;;;18.20;13.05;;;;;;;;;;5103136;28;20529;-68
2022/01/29 07:05:20;;;;;;;19.67;13.50;;;;;;;;;;5102718;28;20211;-68
2022/01/29 07:07:46;;;;;;;17.55;12.50;;;;;;;;;;5102546;28;20191;-68
2022/01/29 07:10:14;;;;;;;15.88;12.55;;;;;;;;;;5102655;28;20192;-68
2022/01/29 07:12:41;;;;;;;21.35;13.57;;;;;;;;;;5102735;28;20196;-68
2022/01/29 07:15:08;;;;;;;18.60;13.57;;;;;;;;;;5103139;28;20223;-68
2022/01/29 07:17:35;;;;;;;18.13;13.90;;;;;;;;;;5102634;28;20415;-68
2022/01/29 07:20:01;;;;;;;16.95;12.95;;;;;;;;;;5102687;28;20196;-68
2022/01/29 07:22:28;;;;;;;19.83;14.68;;;;;;;;;;5102421;28;20195;-68
2022/01/29 07:24:54;;;;;;;23.27;13.00;;;;;;;;;;5102711;28;20491;-68
2022/01/29 07:27:22;;;;;;;15.93;12.45;;;;;;;;;;5102497;28;20305;-68
2022/01/29 07:29:48;;;;;;;18.20;13.38;;;;;;;;;;5102484;28;20203;-68
2022/01/29 07:32:15;;;;;;;19.25;13.60;;;;;;;;;;5102816;28;20218;-68
2022/01/29 07:34:41;;;;;;;21.88;14.95;;;;;;;;;;5102393;28;20241;-68
2022/01/29 07:37:08;;;;;;;21.38;13.70;;;;;;;;;;5102418;28;20241;-68
2022/01/29 07:39:34;;;;;;;25.55;14.07;;;;;;;;;;5102197;28;20195;-68
2022/01/29 07:42:01;;;;;;;17.65;13.45;;;;;;;;;;5102684;28;20200;-68
2022/01/29 07:44:29;;;;;;;18.83;12.63;;;;;;;;;;5102211;28;20524;-68
2022/01/29 07:46:55;;;;;;;19.48;13.38;;;;;;;;;;5102491;28;20195;-68
2022/01/29 07:49:21;;;;;;;18.38;12.82;;;;;;;;;;5100883;28;20188;-62
2022/01/29 07:51:48;;;;;;;14.82;11.88;;;;;;;;;;5095725;28;20219;-60
2022/01/29 07:54:14;;;;;;;18.90;13.75;;;;;;;;;;5088241;28;20207;-60
2022/01/29 07:56:41;;;;;;;20.83;13.30;;;;;;;;;;5094805;28;20340;-61
2022/01/29 07:59:07;;;;;;;35.85;22.77;;;;;;;;;;5096683;28;20249;-61
2022/01/29 08:01:35;;;;;;;27.85;17.33;;;;;;;;;;5098433;28;20253;-61
2022/01/29 08:04:01;;;;;;;19.23;12.82;;;;;;;;;;5099974;28;20549;-61
2022/01/29 08:06:29;;;;;;;17.10;12.63;;;;;;;;;;5099254;28;20231;-60
2022/01/29 08:08:56;;;;;;;15.27;12.18;;;;;;;;;;5099664;28;20203;-61
2022/01/29 08:11:22;;;;;;;18.92;13.07;;;;;;;;;;5100090;28;20530;-61
2022/01/29 08:13:49;;;;;;;18.58;12.57;;;;;;;;;;5099648;28;20203;-61
2022/01/29 08:16:16;;;;;;;17.17;11.40;;;;;;;;;;5100188;28;20219;-61
2022/01/29 08:18:45;;;;;;;15.07;11.60;;;;;;;;;;5101995;28;20196;-61
2022/01/29 08:21:12;;;;;;;13.55;10.18;;;;;;;;;;5101579;28;20199;-62
2022/01/29 08:23:38;;;;;;;13.20;10.02;;;;;;;;;;5102304;28;20419;-61
2022/01/29 08:26:05;;;;;;;13.52;9.23;;;;;;;;;;5101332;28;20498;-61
2022/01/29 08:28:31;;;;;;;11.13;8.70;;;;;;;;;;5101245;28;20249;-62
2022/01/29 08:30:57;;;;;;;9.75;8.23;;;;;;;;;;5101528;28;20407;-62
2022/01/29 08:33:24;;;;;;;9.55;7.10;;;;;;;;;;5101394;28;20198;-62
2022/01/29 08:35:52;;;;;;;9.63;6.35;;;;;;;;;;5101705;28;20385;-62
2022/01/29 08:38:19;;;;;;;7.55;6.85;;;;;;;;;;5101354;28;20215;-62
2022/01/29 08:40:45;;;;;;;8.90;6.22;;;;;;;;;;5101536;28;20188;-61
2022/01/29 08:43:11;;;;;;;6.50;5.90;;;;;;;;;;5100813;28;20507;-62
2022/01/29 08:45:38;;;;;;;7.38;5.82;;;;;;;;;;5101916;28;20188;-61
2022/01/29 08:48:05;;;;;;;8.77;6.72;;;;;;;;;;5101749;28;20219;-61
2022/01/29 08:50:31;;;;;;;7.78;5.75;;;;;;;;;;5101655;28;20348;-61
2022/01/29 08:52:59;;;;;;;6.50;5.32;;;;;;;;;;5101793;28;20373;-61
2022/01/29 08:55:25;;;;;;;5.32;4.88;;;;;;;;;;5101687;28;20418;-61
2022/01/29 08:57:52;;;;;;;12.25;5.80;;;;;;;;;;5105319;28;20226;-61
2022/01/29 09:00:19;;;;;;;8.45;5.38;;;;;;;;;;5105499;28;20203;-61
2022/01/29 09:02:45;;;;;;;6.57;4.88;;;;;;;;;;5105492;28;20226;-61
2022/01/29 09:05:12;;;;;;;5.18;4.35;;;;;;;;;;5105112;28;20219;-61
2022/01/29 09:07:39;;;;;;;4.55;4.15;;;;;;;;;;5104908;28;20213;-61
2022/01/29 09:10:07;;;;;;;5.22;4.07;;;;;;;;;;5104960;28;20192;-60
2022/01/29 09:12:34;;;;;;;4.43;4.03;;;;;;;;;;5104902;28;20192;-61
2022/01/29 09:15:00;;;;;;;5.32;4.75;;;;;;;;;;5104941;28;20195;-61
2022/01/29 09:17:27;;;;;;;4.75;3.58;;;;;;;;;;5104853;28;20503;-61
2022/01/29 09:19:53;;;;;;;5.30;3.95;;;;;;;;;;5104851;28;20207;-61
2022/01/29 09:22:20;;;;;;;5.50;3.75;;;;;;;;;;5104928;28;20195;-61
2022/01/29 09:24:46;;;;;;;8.70;5.53;;;;;;;;;;5104912;28;20199;-61
2022/01/29 09:27:14;;;;;;;7.88;5.10;;;;;;;;;;5104756;28;20191;-61
2022/01/29 09:29:40;;;;;;;5.35;4.80;;;;;;;;;;5104636;28;20196;-61
2022/01/29 09:32:07;;;;;;;8.52;4.47;;;;;;;;;;5104876;28;20192;-61
2022/01/29 09:34:33;;;;;;;4.28;3.70;;;;;;;;;;5104663;28;20200;-61
2022/01/29 09:37:00;;;;;;;25.38;11.43;;;;;;;;;;5104403;28;20216;-61
2022/01/29 09:39:26;;;;;;;18.95;9.98;;;;;;;;;;5104753;28;20207;-61
2022/01/29 09:41:55;;;;;;;5.30;4.05;;;;;;;;;;5104649;28;20491;-61
2022/01/29 09:44:22;;;;;;;5.10;4.43;;;;;;;;;;5104327;28;20219;-61
2022/01/29 09:46:51;;;;;;;4.50;4.00;;;;;;;;;;5104231;28;20245;-61
2022/01/29 09:49:18;;;;;;;4.03;3.72;;;;;;;;;;5104639;28;20241;-61
2022/01/29 09:51:44;;;;;;;4.40;4.00;;;;;;;;;;5104407;28;20199;-61
2022/01/29 09:54:11;;;;;;;4.13;3.83;;;;;;;;;;5104181;28;20281;-61
2022/01/29 09:56:37;;;;;;;6.22;3.90;;;;;;;;;;5104125;28;20249;-61
2022/01/29 09:59:04;;;;;;;4.22;3.63;;;;;;;;;;5104033;28;20195;-60
2022/01/29 10:01:32;;;;;;;6.07;4.50;;;;;;;;;;5104719;28;20203;-61
2022/01/29 10:03:59;;;;;;;4.70;3.83;;;;;;;;;;5104191;28;20203;-61
2022/01/29 10:06:25;;;;;;;7.22;3.80;;;;;;;;;;5103974;28;20390;-61
2022/01/29 10:08:52;;;;;;;4.38;3.97;;;;;;;;;;5103425;28;20237;-61
2022/01/29 10:11:19;;;;;;;4.22;3.47;;;;;;;;;;5104032;28;20195;-61
2022/01/29 10:13:46;;;;;;;5.00;3.97;;;;;;;;;;5103918;28;20192;-61
2022/01/29 10:16:13;;;;;;;4.22;3.83;;;;;;;;;;5104254;28;20526;-61
2022/01/29 10:18:42;;;;;;;4.85;4.40;;;;;;;;;;5104058;28;20196;-61
2022/01/29 10:21:10;;;;;;;4.35;3.72;;;;;;;;;;5103849;28;20196;-61
2022/01/29 10:23:37;;;;;;;6.10;4.55;;;;;;;;;;5103924;28;20494;-61
2022/01/29 10:26:04;;;;;;;6.60;4.05;;;;;;;;;;5103435;28;20192;-61
2022/01/29 10:28:31;;;;;;;4.70;4.28;;;;;;;;;;5103553;28;20199;-60
2022/01/29 10:30:59;;;;;;;4.88;4.00;;;;;;;;;;5103494;28;20564;-59
2022/01/29 10:33:26;;;;;;;5.15;4.70;;;;;;;;;;5103824;28;20204;-59
2022/01/29 10:35:55;;;;;;;4.45;4.15;;;;;;;;;;5103529;28;20216;-59
2022/01/29 10:38:22;;;;;;;5.82;4.55;;;;;;;;;;5103144;28;20207;-59
2022/01/29 10:41:09;;;;;;;5.90;4.78;;;;;;;;;;5103113;28;20203;-60
2022/01/29 10:43:35;;;;;;;6.32;4.57;;;;;;;;;;5102980;28;20195;-59
2022/01/29 10:46:02;;;;;;;7.60;5.75;;;;;;;;;;5103033;28;20196;-60
2022/01/29 10:48:42;;;;;;;7.55;4.75;;;;;;;;;;5102620;28;20196;-61
2022/01/29 10:51:13;;;;;;;7.00;5.32;;;;;;;;;;5102434;28;20262;-60
2022/01/29 10:53:39;;;;;;;8.15;4.97;;;;;;;;;;5102863;28;20195;-61
2022/01/29 10:56:06;;;;;;;5.85;5.25;;;;;;;;;;5102271;28;20224;-61
2022/01/29 10:58:39;;;;;;;5.78;5.05;;;;;;;;;;5102463;28;20241;-61
2022/01/29 11:01:12;;;;;;;5.53;5.07;;;;;;;;;;5102786;28;20196;-61
2022/01/29 11:03:38;;;;;;;7.50;5.97;;;;;;;;;;5102549;28;20266;-61
2022/01/29 11:06:06;;;;;;;5.18;4.75;;;;;;;;;;5102474;28;20212;-61
2022/01/29 11:08:34;;;;;;;9.73;5.63;;;;;;;;;;5101653;28;20229;-60
2022/01/29 11:11:01;;;;;;;6.32;4.82;;;;;;;;;;5102649;28;20390;-60
2022/01/29 11:13:28;;;;;;;5.05;4.57;;;;;;;;;;5102489;28;20203;-60
2022/01/29 11:15:55;;;;;;;6.30;4.75;;;;;;;;;;5102567;28;20219;-60
2022/01/29 11:18:22;;;;;;;5.55;4.93;;;;;;;;;;5101955;28;20234;-60
2022/01/29 11:20:48;;;;;;;5.82;5.00;;;;;;;;;;5101303;28;20249;-61
2022/01/29 11:23:15;;;;;;;5.45;4.93;;;;;;;;;;5101906;28;20195;-60
2022/01/29 11:25:43;;;;;;;7.82;5.15;;;;;;;;;;5102191;28;20196;-60
2022/01/29 11:28:13;;;;;;;4.85;4.43;;;;;;;;;;5102051;28;20218;-60
2022/01/29 11:30:41;;;;;;;5.95;4.57;;;;;;;;;;5102033;28;20203;-59
2022/01/29 11:33:08;;;;;;;4.68;4.28;;;;;;;;;;5102267;28;20204;-61
2022/01/29 11:35:49;;;;;;;5.05;4.53;;;;;;;;;;5101642;28;20195;-60
2022/01/29 11:38:27;;;;;;;4.20;3.88;;;;;;;;;;5101429;28;20471;-59
2022/01/29 11:40:58;;;;;;;5.45;3.97;;;;;;;;;;5102461;28;20206;-60
2022/01/29 11:43:25;;;;;;;4.35;3.95;;;;;;;;;;5102368;28;20192;-59
2022/01/29 11:45:54;;;;;;;3.38;3.17;;;;;;;;;;5102295;28;20492;-60
2022/01/29 11:48:40;;;;;;;4.00;3.63;;;;;;;;;;5101548;28;20196;-60
2022/01/29 11:51:07;;;;;;;4.47;3.17;;;;;;;;;;5101975;28;20192;-61
2022/01/29 11:53:49;;;;;;;5.70;3.53;;;;;;;;;;5101829;28;20200;-61
2022/01/29 11:56:28;;;;;;;3.53;3.22;;;;;;;;;;5101024;28;20211;-60
2022/01/29 11:59:09;;;;;;;3.80;3.42;;;;;;;;;;5101677;28;20263;-60
2022/01/29 12:01:35;;;;;;;3.08;2.97;;;;;;;;;;5100892;28;20196;-61
2022/01/29 12:04:02;;;;;;;3.40;3.00;;;;;;;;;;5101506;28;20203;-61
2022/01/29 12:06:31;;;;;;;3.33;3.03;;;;;;;;;;5101374;28;20522;-61
2022/01/29 12:09:19;;;;;;;3.20;2.85;;;;;;;;;;5101686;28;20223;-60
2022/01/29 12:12:06;;;;;;;4.07;3.72;;;;;;;;;;5093311;28;20196;-61
2022/01/29 12:14:33;;;;;;;3.20;2.83;;;;;;;;;;5101235;28;20195;-61
2022/01/29 12:17:02;;;;;;;2.65;2.55;;;;;;;;;;5101434;28;20215;-61
2022/01/29 12:19:35;;;;;;;1.88;1.77;;;;;;;;;;5101357;28;20242;-60
2022/01/29 12:22:02;;;;;;;4.20;2.60;;;;;;;;;;5101641;28;20424;-60
2022/01/29 12:24:28;;;;;;;2.97;2.78;;;;;;;;;;5101426;28;20234;-61
2022/01/29 12:26:56;;;;;;;1.88;1.77;;;;;;;;;;5101102;28;20192;-60
2022/01/29 12:29:23;;;;;;;2.78;2.63;;;;;;;;;;5101390;28;20456;-59
2022/01/29 12:31:50;;;;;;;2.30;2.20;;;;;;;;;;5103705;28;20517;-60
2022/01/29 12:34:17;;;;;;;2.47;2.38;;;;;;;;;;5104930;28;20491;-59
2022/01/29 12:36:43;;;;;;;3.28;2.67;;;;;;;;;;5104908;28;20215;-59
2022/01/29 12:39:14;;;;;;;2.00;1.90;;;;;;;;;;5105068;28;20392;-60
2022/01/29 12:41:44;;;;;;;3.83;2.60;;;;;;;;;;5105106;28;20230;-59
2022/01/29 12:44:18;;;;;;;3.08;2.67;;;;;;;;;;5105677;28;20523;-60
2022/01/29 12:46:46;;;;;;;4.90;4.15;;;;;;;;;;5105213;28;20255;-60
2022/01/29 12:49:13;;;;;;;2.47;2.33;;;;;;;;;;5105512;28;20211;-60
2022/01/29 12:51:49;;;;;;;2.80;2.60;;;;;;;;;;5105462;28;20196;-59
2022/01/29 12:54:16;;;;;;;2.55;2.40;;;;;;;;;;5105432;28;20241;-60
2022/01/29 12:56:43;;;;;;;1.77;1.48;;;;;;;;;;5105094;28;20250;-59
2022/01/29 12:59:11;;;;;;;2.53;2.35;;;;;;;;;;5105306;28;20195;-60
2022/01/29 13:01:40;;;;;;;3.22;2.03;;;;;;;;;;5105099;28;20203;-59
2022/01/29 13:04:07;;;;;;;2.00;1.90;;;;;;;;;;5105238;28;20196;-60
2022/01/29 13:06:34;;;;;;;2.40;2.20;;;;;;;;;;5104511;28;20405;-60
2022/01/29 13:09:14;;;;;;;2.75;1.70;;;;;;;;;;5105280;28;20195;-59
2022/01/29 13:11:40;;;;;;;1.60;1.60;;;;;;;;;;5105499;28;20195;-60
2022/01/29 13:14:14;;;;;;;1.80;1.70;;;;;;;;;;5105058;28;20503;-59
2022/01/29 13:16:42;;;;;;;1.92;1.83;;;;;;;;;;5084890;28;20216;-60
2022/01/29 13:19:08;;;;;;;2.92;1.83;;;;;;;;;;5084507;28;20197;-60
2022/01/29 13:21:35;;;;;;;1.60;1.50;;;;;;;;;;5084892;28;20380;-60
2022/01/29 13:24:22;;;;;;;2.80;1.90;;;;;;;;;;5084667;28;20200;-59
2022/01/29 13:26:59;;;;;;;5.70;4.28;;;;;;;;;;5084246;28;20184;-60
2022/01/29 13:29:32;;;;;;;2.22;2.05;;;;;;;;;;5095013;28;20225;-60
2022/01/29 13:31:58;;;;;;;3.50;2.55;;;;;;;;;;5104796;28;20386;-60
2022/01/29 13:34:25;;;;;;;1.33;1.25;;;;;;;;;;5104365;28;20237;-60
2022/01/29 13:36:52;;;;;;;1.70;1.60;;;;;;;;;;5104613;28;20216;-60
2022/01/29 13:39:19;;;;;;;1.30;1.30;;;;;;;;;;5104507;28;20253;-60
2022/01/29 13:41:45;;;;;;;1.55;1.55;;;;;;;;;;5104526;28;20556;-59
2022/01/29 13:44:13;;;;;;;1.70;1.40;;;;;;;;;;5103143;28;20200;-60
2022/01/29 13:46:40;;;;;;;1.25;1.25;;;;;;;;;;5104791;28;20214;-59
2022/01/29 13:49:07;;;;;;;1.25;1.25;;;;;;;;;;5104416;28;20413;-60
2022/01/29 13:51:35;;;;;;;1.85;1.52;;;;;;;;;;5104217;28;20313;-60
2022/01/29 13:54:02;;;;;;;2.58;1.42;;;;;;;;;;5104229;28;20203;-59
2022/01/29 13:56:30;;;;;;;2.00;1.67;;;;;;;;;;5103702;28;20187;-59
2022/01/29 13:58:57;;;;;;;1.35;1.35;;;;;;;;;;5104061;28;20195;-60
2022/01/29 14:01:38;;;;;;;2.03;1.92;;;;;;;;;;5104278;28;20230;-60
2022/01/29 14:04:05;;;;;;;5.35;1.50;;;;;;;;;;5104227;28;20499;-59
2022/01/29 14:06:34;;;;;;;3.20;1.65;;;;;;;;;;5103796;28;20404;-60
2022/01/29 14:09:17;;;;;;;1.38;1.38;;;;;;;;;;5103596;28;20195;-60
2022/01/29 14:12:00;;;;;;;1.90;1.80;;;;;;;;;;5103853;28;20195;-59
2022/01/29 14:14:27;;;;;;;2.55;1.40;;;;;;;;;;5104203;28;20204;-60
2022/01/29 14:16:56;;;;;;;2.83;2.13;;;;;;;;;;5103585;28;20549;-60
2022/01/29 14:19:23;;;;;;;1.77;1.67;;;;;;;;;;5103581;28;20203;-58
2022/01/29 14:21:51;;;;;;;1.20;1.20;;;;;;;;;;5103811;28;20495;-59
2022/01/29 14:24:18;;;;;;;4.00;3.70;;;;;;;;;;5103550;28;20211;-60
2022/01/29 14:26:44;;;;;;;1.85;1.75;;;;;;;;;;5103665;28;20241;-59
2022/01/29 14:29:11;;;;;;;1.88;1.40;;;;;;;;;;5103591;28;20203;-59
2022/01/29 14:31:37;;;;;;;5.35;2.33;;;;;;;;;;5103515;28;20212;-60
2022/01/29 14:34:05;;;;;;;1.80;1.80;;;;;;;;;;5103388;28;20195;-60
2022/01/29 14:36:32;;;;;;;1.67;1.67;;;;;;;;;;5103290;28;20196;-60
2022/01/29 14:38:58;;;;;;;2.80;1.98;;;;;;;;;;5103234;28;20411;-58
2022/01/29 14:41:25;;;;;;;1.95;1.85;;;;;;;;;;5103411;28;20196;-59
2022/01/29 14:43:51;;;;;;;2.15;1.60;;;;;;;;;;5103491;28;20467;-58
2022/01/29 14:46:18;;;;;;;2.05;1.83;;;;;;;;;;5102934;28;20450;-59
2022/01/29 14:48:44;;;;;;;1.75;1.65;;;;;;;;;;5103041;28;20196;-59